Time;durP1;ratioP1;P1;durP2;ratioP2;P2;SDS_P1;SDS_P2;PMS_P1;PMS_P2;Temp;Humidity;BMP_temperature;BMP_pressure;BME280_temperature;BME280_humidity;BME280_pressure;Samples;Min_cycle;Max_cycle;Signal;HPM_P1;HPM_P2
2023/01/11 00:00:25;;;;;;;10.60;9.52;;;8.90;99.90;;;;;;7386053;19;20022;-59
2023/01/11 00:02:56;;;;;;;10.30;9.20;;;8.90;99.90;;;;;;7378748;19;20480;-59
2023/01/11 00:05:26;;;;;;;10.93;9.70;;;8.90;99.90;;;;;;7369772;19;20480;-60
2023/01/11 00:07:52;;;;;;;11.23;10.13;;;8.90;99.90;;;;;;7371816;19;20026;-60
2023/01/11 00:10:19;;;;;;;12.05;10.65;;;8.90;99.90;;;;;;7381787;19;20492;-60
2023/01/11 00:12:46;;;;;;;12.93;10.82;;;8.90;99.90;;;;;;7381544;19;20027;-58
2023/01/11 00:15:13;;;;;;;11.75;10.57;;;8.90;99.90;;;;;;7387810;19;20051;-58
2023/01/11 00:17:40;;;;;;;11.48;10.35;;;8.90;99.90;;;;;;7383558;19;20015;-58
2023/01/11 00:20:08;;;;;;;12.75;10.68;;;8.90;99.90;;;;;;7385016;19;20007;-59
2023/01/11 00:22:36;;;;;;;11.73;10.55;;;9.00;99.90;;;;;;7380983;19;20010;-59
2023/01/11 00:25:03;;;;;;;11.40;10.13;;;9.00;99.90;;;;;;7386621;19;20022;-59
2023/01/11 00:27:29;;;;;;;11.93;10.70;;;9.00;99.90;;;;;;7387571;19;20021;-59
2023/01/11 00:29:56;;;;;;;13.23;11.85;;;9.10;99.90;;;;;;7392195;19;20040;-59
2023/01/11 00:32:22;;;;;;;12.52;11.10;;;9.00;99.90;;;;;;7392995;19;20022;-59
2023/01/11 00:34:48;;;;;;;11.27;10.18;;;9.10;99.90;;;;;;7388711;19;20019;-59
2023/01/11 00:37:14;;;;;;;11.75;10.55;;;9.10;99.90;;;;;;7391864;19;20031;-59
2023/01/11 00:39:41;;;;;;;12.18;10.98;;;9.10;99.90;;;;;;7390313;19;20014;-57
2023/01/11 00:47:56;;;;;;;11.50;10.40;;;9.20;99.90;;;;;;7393684;19;20018;-59
2023/01/11 00:50:23;;;;;;;11.27;10.05;;;9.20;99.90;;;;;;7391492;19;20026;-59
2023/01/11 00:52:49;;;;;;;11.93;10.50;;;9.20;99.90;;;;;;7392308;19;20041;-60
2023/01/11 00:55:16;;;;;;;12.02;10.52;;;9.20;99.90;;;;;;7392939;19;20484;-59
2023/01/11 00:57:42;;;;;;;11.52;10.43;;;9.20;99.90;;;;;;7394749;19;20118;-59
2023/01/11 01:00:09;;;;;;;13.63;10.55;;;9.30;99.90;;;;;;7394896;19;20010;-60
2023/01/11 01:02:35;;;;;;;12.55;10.90;;;9.30;99.90;;;;;;7393109;19;20047;-59
2023/01/11 01:05:01;;;;;;;11.93;10.80;;;9.40;99.90;;;;;;7390484;19;20361;-60
2023/01/11 01:07:27;;;;;;;11.60;10.48;;;9.30;99.90;;;;;;7376777;19;20370;-60
2023/01/11 01:09:54;;;;;;;12.52;11.23;;;9.40;99.90;;;;;;7376261;19;20600;-61
2023/01/11 01:15:05;;;;;;;13.43;11.63;;;9.40;99.90;;;;;;7378850;19;20122;-61
2023/01/11 01:17:32;;;;;;;12.60;11.18;;;9.40;99.90;;;;;;7378589;19;20520;-61
2023/01/11 01:19:58;;;;;;;12.25;10.13;;;9.40;99.90;;;;;;7379701;19;20090;-61
2023/01/11 01:22:24;;;;;;;13.27;10.73;;;9.40;99.90;;;;;;7377628;19;20018;-61
2023/01/11 01:24:51;;;;;;;13.35;11.98;;;9.50;99.90;;;;;;7376985;19;20021;-61
2023/01/11 01:27:18;;;;;;;12.90;11.60;;;9.50;99.90;;;;;;7370078;19;20026;-60
2023/01/11 01:29:45;;;;;;;13.43;11.50;;;9.50;99.90;;;;;;7376399;19;20037;-60
2023/01/11 01:32:11;;;;;;;13.75;11.70;;;9.50;99.90;;;;;;7387774;19;20031;-59
2023/01/11 01:34:37;;;;;;;14.25;12.15;;;9.50;99.90;;;;;;7384366;19;20017;-60
2023/01/11 01:37:05;;;;;;;13.75;12.20;;;9.60;99.90;;;;;;7377289;19;20623;-61
2023/01/11 01:39:32;;;;;;;14.45;12.88;;;9.60;99.90;;;;;;7374603;19;20019;-60
2023/01/11 01:41:59;;;;;;;13.77;12.38;;;9.60;99.90;;;;;;7392493;19;20082;-57
2023/01/11 01:44:55;;;;;;;13.60;11.80;;;9.70;99.90;;;;;;7390271;19;20018;-57
2023/01/11 01:47:46;;;;;;;13.43;12.10;;;9.70;99.90;;;;;;7394260;19;20041;-57
2023/01/11 01:50:20;;;;;;;14.80;12.88;;;9.70;99.90;;;;;;7390378;19;20459;-59
2023/01/11 01:52:50;;;;;;;16.27;13.23;;;9.70;99.90;;;;;;7390230;19;20055;-59
2023/01/11 01:55:25;;;;;;;14.43;11.95;;;9.80;99.90;;;;;;7390457;19;20385;-59
2023/01/11 01:57:53;;;;;;;14.40;12.50;;;9.80;99.90;;;;;;7392580;19;20037;-59
2023/01/11 02:00:20;;;;;;;14.52;12.40;;;9.70;99.90;;;;;;7391020;19;20026;-59
2023/01/11 02:02:49;;;;;;;14.80;12.25;;;9.80;99.90;;;;;;7378038;19;20022;-60
2023/01/11 02:05:16;;;;;;;15.27;12.40;;;9.80;99.90;;;;;;7372562;19;20492;-59
2023/01/11 02:07:47;;;;;;;14.88;11.63;;;9.80;99.90;;;;;;7370765;19;20395;-59
2023/01/11 02:10:18;;;;;;;15.63;12.68;;;9.80;99.90;;;;;;7388162;19;20033;-59
2023/01/11 02:12:56;;;;;;;;;;;9.90;99.90;;;;;;7377761;19;20349;-59
2023/01/11 02:15:23;;;;;;;13.50;11.45;;;9.90;99.90;;;;;;7373556;19;20358;-60
2023/01/11 02:17:57;;;;;;;16.13;11.95;;;9.90;99.90;;;;;;7372127;19;20034;-59
2023/01/11 02:20:35;;;;;;;14.30;10.95;;;9.90;99.90;;;;;;7379047;19;20015;-60
2023/01/11 02:23:04;;;;;;;12.73;11.52;;;10.00;99.90;;;;;;7375911;19;20020;-60
2023/01/11 02:25:54;;;;;;;12.65;10.90;;;10.00;99.90;;;;;;7377117;19;20381;-58
2023/01/11 02:28:50;;;;;;;11.85;10.57;;;10.00;99.90;;;;;;7388079;19;20049;-59
2023/01/11 02:31:40;;;;;;;12.75;10.90;;;10.00;99.90;;;;;;7377403;19;20014;-58
2023/01/11 02:34:24;;;;;;;13.57;11.18;;;10.00;99.90;;;;;;7382524;19;20361;-59
2023/01/11 02:37:12;;;;;;;13.45;11.20;;;10.00;99.90;;;;;;7380739;19;20033;-59
2023/01/11 02:40:16;;;;;;;15.77;11.20;;;10.10;99.90;;;;;;7380564;19;20018;-59
2023/01/11 02:45:46;;;;;;;13.48;11.70;;;10.10;99.90;;;;;;7384848;19;20408;-58
2023/01/11 02:48:31;;;;;;;13.60;11.00;;;10.20;99.90;;;;;;7380979;19;20025;-59
2023/01/11 02:51:25;;;;;;;13.27;11.18;;;10.20;99.90;;;;;;7373737;19;20379;-58
2023/01/11 02:54:00;;;;;;;14.70;10.82;;;10.20;99.90;;;;;;7382903;19;20417;-59
2023/01/11 02:56:34;;;;;;;11.02;9.93;;;10.20;99.90;;;;;;7382961;19;20035;-59
2023/01/11 02:59:03;;;;;;;12.98;9.77;;;10.20;99.90;;;;;;7383967;19;20593;-59
2023/01/11 03:01:29;;;;;;;10.73;9.63;;;10.30;99.90;;;;;;7383537;19;20097;-58
2023/01/11 03:03:55;;;;;;;11.90;9.32;;;10.30;99.90;;;;;;7383243;19;20022;-59
2023/01/11 03:06:30;;;;;;;10.63;9.52;;;10.30;99.90;;;;;;7381995;19;20612;-59
2023/01/11 03:09:15;;;;;;;11.93;9.60;;;10.30;99.90;;;;;;7384931;19;20014;-59
2023/01/11 03:14:53;;;;;;;9.40;8.35;;;10.40;99.90;;;;;;7380683;19;20029;-59
2023/01/11 03:17:44;;;;;;;8.80;7.90;;;10.30;99.90;;;;;;7381410;19;20033;-60
2023/01/11 03:20:17;;;;;;;10.38;8.90;;;10.30;99.90;;;;;;7380900;19;20073;-60
2023/01/11 03:23:09;;;;;;;9.45;8.15;;;10.30;99.90;;;;;;7382140;19;20022;-60
2023/01/11 03:25:58;;;;;;;9.85;8.35;;;10.30;99.90;;;;;;7381106;19;20022;-59
2023/01/11 03:28:30;;;;;;;8.88;7.97;;;10.40;99.90;;;;;;7373379;19;20576;-61
2023/01/11 03:31:10;;;;;;;;;;;10.40;99.90;;;;;;7369690;19;20019;-61
2023/01/11 03:34:17;;;;;;;9.13;7.20;;;10.40;99.90;;;;;;7378650;19;19949;-60
2023/01/11 03:36:52;;;;;;;8.38;7.22;;;10.40;99.90;;;;;;7372061;19;20014;-59
2023/01/11 03:39:24;;;;;;;8.43;6.93;;;10.40;99.90;;;;;;7382939;19;20373;-59
2023/01/11 03:41:56;;;;;;;7.20;5.93;;;10.50;99.90;;;;;;7384743;19;20042;-59
2023/01/11 03:44:25;;;;;;;7.22;6.07;;;10.50;99.90;;;;;;7380081;19;20019;-60
2023/01/11 03:47:03;;;;;;;8.25;5.47;;;10.50;99.90;;;;;;7383463;19;20351;-60
2023/01/11 03:49:36;;;;;;;7.43;5.38;;;10.60;99.90;;;;;;7383635;19;20035;-59
2023/01/11 03:52:07;;;;;;;5.13;4.63;;;10.60;99.90;;;;;;7383086;19;20089;-60
2023/01/11 03:54:35;;;;;;;6.55;4.50;;;10.60;99.90;;;;;;7384404;19;20015;-59
2023/01/11 03:57:23;;;;;;;5.57;4.75;;;10.60;99.90;;;;;;7384022;19;20035;-60
2023/01/11 03:59:52;;;;;;;5.50;4.10;;;10.60;99.90;;;;;;7384844;19;20286;-60
2023/01/11 04:02:25;;;;;;;4.60;3.35;;;10.70;99.90;;;;;;7386052;19;20021;-60
2023/01/11 04:04:51;;;;;;;3.95;3.13;;;10.70;99.90;;;;;;7389952;19;20025;-59
2023/01/11 04:07:17;;;;;;;5.22;2.63;;;10.70;99.90;;;;;;7389765;19;20019;-59
2023/01/11 04:09:44;;;;;;;4.50;3.00;;;10.70;99.90;;;;;;7390522;19;20376;-60
2023/01/11 04:12:11;;;;;;;4.32;3.60;;;10.70;99.90;;;;;;7388494;19;20010;-60
2023/01/11 04:14:37;;;;;;;5.15;3.40;;;10.70;99.90;;;;;;7389803;19;20035;-60
2023/01/11 04:17:04;;;;;;;3.95;2.88;;;10.70;99.90;;;;;;7391500;19;20021;-60
2023/01/11 04:19:31;;;;;;;4.63;3.33;;;10.70;99.90;;;;;;7393608;19;20033;-60
2023/01/11 04:21:58;;;;;;;5.60;3.55;;;10.70;99.90;;;;;;7391018;19;20033;-60
2023/01/11 04:24:24;;;;;;;4.80;3.95;;;10.80;99.90;;;;;;7386677;19;20484;-59
2023/01/11 04:26:51;;;;;;;5.03;3.78;;;10.80;99.90;;;;;;7390786;19;20017;-60
2023/01/11 04:29:18;;;;;;;4.15;3.20;;;10.80;99.90;;;;;;7391211;19;20400;-60
2023/01/11 04:31:44;;;;;;;5.35;3.53;;;10.80;99.90;;;;;;7390132;19;20057;-59
2023/01/11 04:34:13;;;;;;;5.40;3.78;;;10.80;99.90;;;;;;7391501;19;20018;-60
2023/01/11 04:36:39;;;;;;;6.78;4.10;;;10.80;99.90;;;;;;7391873;19;20422;-59
2023/01/11 04:39:09;;;;;;;8.38;4.05;;;10.80;99.90;;;;;;7392652;19;20022;-59
2023/01/11 04:44:24;;;;;;;6.80;5.03;;;10.90;99.90;;;;;;7393331;19;20014;-60
2023/01/11 04:46:50;;;;;;;7.30;5.15;;;10.90;99.90;;;;;;7395247;19;20014;-59
2023/01/11 04:49:16;;;;;;;9.43;6.10;;;10.90;99.90;;;;;;7395472;19;20022;-59
2023/01/11 04:51:42;;;;;;;10.13;5.32;;;10.90;99.90;;;;;;7383690;19;20014;-61
2023/01/11 04:54:09;;;;;;;13.30;6.10;;;10.90;99.90;;;;;;7376119;19;20533;-60
2023/01/11 04:56:35;;;;;;;10.10;6.68;;;10.90;99.90;;;;;;7385746;19;20026;-59
2023/01/11 04:59:01;;;;;;;17.63;7.65;;;10.90;99.90;;;;;;7397042;19;20370;-59
2023/01/11 05:01:27;;;;;;;14.60;7.97;;;10.90;99.90;;;;;;7396050;19;20010;-60
2023/01/11 05:03:54;;;;;;;16.90;8.90;;;11.00;99.90;;;;;;7395879;19;20021;-59
2023/01/11 05:06:23;;;;;;;11.07;7.55;;;11.00;99.90;;;;;;7397227;19;20025;-60
2023/01/11 05:08:49;;;;;;;15.48;8.05;;;11.00;99.90;;;;;;7396468;19;20018;-60
2023/01/11 05:11:16;;;;;;;15.68;7.65;;;11.00;99.90;;;;;;7383465;19;20033;-61
2023/01/11 05:13:43;;;;;;;18.65;7.25;;;11.00;99.90;;;;;;7372922;19;20014;-61
2023/01/11 05:16:16;;;;;;;17.23;7.40;;;11.00;99.90;;;;;;7382768;19;20627;-60
2023/01/11 05:18:57;;;;;;;15.88;6.15;;;11.00;99.90;;;;;;7392995;19;20127;-60
2023/01/11 05:21:26;;;;;;;16.92;5.18;;;11.00;99.90;;;;;;7397661;19;20011;-59
2023/01/11 05:23:54;;;;;;;22.15;5.13;;;11.00;99.90;;;;;;7376023;19;20015;-61
2023/01/11 05:26:28;;;;;;;22.48;5.15;;;11.00;99.90;;;;;;7375884;19;20018;-61
2023/01/11 05:28:57;;;;;;;22.95;4.88;;;11.00;99.90;;;;;;7370493;19;20034;-61
2023/01/11 05:31:24;;;;;;;18.55;4.70;;;10.90;99.90;;;;;;7373510;19;20521;-60
2023/01/11 05:33:51;;;;;;;23.88;5.03;;;10.90;99.90;;;;;;7377674;19;20037;-59
2023/01/11 05:36:21;;;;;;;18.60;6.65;;;10.90;99.90;;;;;;7383903;19;20020;-61
2023/01/11 05:38:50;;;;;;;22.42;5.15;;;10.90;99.90;;;;;;7370469;19;20020;-62
2023/01/11 05:41:17;;;;;;;29.98;5.05;;;10.80;99.90;;;;;;7376796;19;20085;-59
2023/01/11 05:46:32;;;;;;;31.35;6.05;;;10.80;99.90;;;;;;7398893;19;20018;-60
2023/01/11 05:48:59;;;;;;;24.85;5.63;;;10.80;99.90;;;;;;7375728;19;20018;-60
2023/01/11 05:51:29;;;;;;;19.42;4.75;;;10.70;99.90;;;;;;7373604;19;20022;-61
2023/01/11 05:53:56;;;;;;;24.70;5.13;;;10.70;99.90;;;;;;7374489;19;20016;-61
2023/01/11 05:56:22;;;;;;;25.23;4.97;;;10.80;99.90;;;;;;7374966;19;20015;-61
2023/01/11 05:58:50;;;;;;;26.08;5.13;;;10.70;99.90;;;;;;7379551;19;20011;-59
2023/01/11 06:01:19;;;;;;;21.13;4.78;;;10.70;99.90;;;;;;7398051;19;20014;-60
2023/01/11 06:03:46;;;;;;;24.92;5.13;;;10.70;99.90;;;;;;7395906;19;20022;-59
2023/01/11 06:06:15;;;;;;;24.27;5.15;;;10.70;99.90;;;;;;7397486;19;20011;-60
2023/01/11 06:08:41;;;;;;;26.13;6.63;;;10.70;99.90;;;;;;7395324;19;20085;-60
2023/01/11 06:11:08;;;;;;;27.23;4.30;;;10.70;99.90;;;;;;7389718;19;20009;-62
2023/01/11 06:13:34;;;;;;;21.27;5.03;;;10.70;99.90;;;;;;7396597;19;20018;-58
2023/01/11 06:16:03;;;;;;;21.70;4.78;;;10.70;99.90;;;;;;7397805;19;20025;-59
2023/01/11 06:18:33;;;;;;;25.23;4.80;;;10.60;99.90;;;;;;7397577;19;20014;-59
2023/01/11 06:21:04;;;;;;;26.35;5.22;;;10.60;99.90;;;;;;7396220;19;20357;-58
2023/01/11 06:23:32;;;;;;;30.90;5.15;;;10.60;99.90;;;;;;7395771;19;20018;-58
2023/01/11 06:26:08;;;;;;;34.28;6.50;;;10.60;99.90;;;;;;7371967;19;20438;-61
2023/01/11 06:28:35;;;;;;;23.98;5.05;;;10.50;99.90;;;;;;7369493;19;20014;-61
2023/01/11 06:31:02;;;;;;;27.52;5.82;;;10.50;99.90;;;;;;7369093;19;20034;-61
2023/01/11 06:33:29;;;;;;;30.90;5.97;;;10.50;99.90;;;;;;7365191;19;20481;-61
2023/01/11 06:35:56;;;;;;;28.42;6.00;;;10.50;99.90;;;;;;7366609;19;20228;-61
2023/01/11 06:38:24;;;;;;;32.85;6.30;;;10.50;99.90;;;;;;7367466;19;20022;-65
2023/01/11 06:40:56;;;;;;;30.38;6.63;;;10.40;99.90;;;;;;7366136;19;20021;-61
2023/01/11 06:43:23;;;;;;;;;;;10.40;99.90;;;;;;7367168;19;20019;-61
2023/01/11 06:45:50;;;;;;;27.20;5.40;;;10.40;99.90;;;;;;7368133;19;20373;-61
2023/01/11 06:48:17;;;;;;;29.27;6.32;;;10.30;99.90;;;;;;7367909;19;20047;-62
2023/01/11 06:50:52;;;;;;;26.15;5.70;;;10.30;99.90;;;;;;7370586;19;20645;-61
2023/01/11 06:53:19;;;;;;;29.30;5.85;;;10.30;99.90;;;;;;7367910;19;20465;-61
2023/01/11 06:55:52;;;;;;;33.88;6.40;;;10.30;99.90;;;;;;7367693;19;20378;-61
2023/01/11 06:58:19;;;;;;;39.72;7.60;;;10.30;99.90;;;;;;7375645;19;20019;-61
2023/01/11 07:00:48;;;;;;;32.63;6.45;;;10.30;99.90;;;;;;7384766;19;20018;-58
2023/01/11 07:03:14;;;;;;;37.25;5.97;;;10.20;99.90;;;;;;7380476;19;20029;-61
2023/01/11 07:05:42;;;;;;;30.17;5.80;;;10.20;99.90;;;;;;7365936;19;20035;-61
2023/01/11 07:08:09;;;;;;;36.17;7.30;;;10.20;99.90;;;;;;7369514;19;20378;-61
2023/01/11 07:10:35;;;;;;;32.63;6.32;;;10.20;99.90;;;;;;7365630;19;20010;-61
2023/01/11 07:13:02;;;;;;;32.05;6.80;;;10.20;99.90;;;;;;7385796;19;20015;-58
2023/01/11 07:15:28;;;;;;;47.80;9.05;;;10.20;99.90;;;;;;7380369;19;20070;-57
2023/01/11 07:18:00;;;;;;;45.10;7.20;;;10.20;99.90;;;;;;7393396;19;20086;-59
2023/01/11 07:20:26;;;;;;;28.88;8.13;;;10.20;99.90;;;;;;7392755;19;20017;-57
2023/01/11 07:22:57;;;;;;;40.55;8.95;;;10.20;99.90;;;;;;7381078;19;20018;-61
2023/01/11 07:25:24;;;;;;;32.13;6.88;;;10.30;99.90;;;;;;7370385;19;20057;-61
2023/01/11 07:28:09;;;;;;;39.20;7.80;;;10.30;99.90;;;;;;7383228;19;20054;-62
2023/01/11 07:30:38;;;;;;;37.85;7.55;;;10.30;99.90;;;;;;7381347;19;20017;-61
2023/01/11 07:33:06;;;;;;;44.95;6.85;;;10.20;99.90;;;;;;7366413;19;20437;-61
2023/01/11 07:35:32;;;;;;;38.13;6.28;;;10.20;99.90;;;;;;7368872;19;20006;-61
2023/01/11 07:37:59;;;;;;;27.73;6.00;;;10.30;99.90;;;;;;7382870;19;20031;-58
2023/01/11 07:40:25;;;;;;;36.13;6.82;;;10.30;99.90;;;;;;7390329;19;20018;-57
2023/01/11 07:43:13;;;;;;;35.70;6.20;;;10.30;99.90;;;;;;7388113;19;20480;-57
2023/01/11 07:45:43;;;;;;;38.42;7.07;;;10.30;99.90;;;;;;7388608;19;20014;-57
2023/01/11 07:48:11;;;;;;;46.08;7.25;;;10.20;99.90;;;;;;7386982;19;20520;-61
2023/01/11 07:50:39;;;;;;;36.22;6.50;;;10.20;99.90;;;;;;7368494;19;20393;-61
2023/01/11 07:53:07;;;;;;;29.75;4.75;;;10.20;99.90;;;;;;7369809;19;20049;-62
2023/01/11 07:55:33;;;;;;;23.70;5.70;;;10.20;99.90;;;;;;7371084;19;20354;-61
2023/01/11 07:58:00;;;;;;;30.42;5.05;;;10.10;99.90;;;;;;7365488;19;20624;-61
2023/01/11 08:00:26;;;;;;;32.65;5.28;;;10.10;99.90;;;;;;7368296;19;20026;-61
2023/01/11 08:02:53;;;;;;;29.20;4.85;;;10.00;99.90;;;;;;7362845;19;20140;-61
2023/01/11 08:05:19;;;;;;;30.15;5.53;;;10.00;99.90;;;;;;7367318;19;20378;-61
2023/01/11 08:07:46;;;;;;;36.88;7.15;;;9.90;99.90;;;;;;7366231;19;20020;-61
2023/01/11 08:10:15;;;;;;;28.02;6.15;;;9.90;99.90;;;;;;7365352;19;20577;-61
2023/01/11 08:15:41;;;;;;;22.35;5.40;;;9.80;99.90;;;;;;7368989;19;20082;-61
2023/01/11 08:18:07;;;;;;;24.23;4.75;;;9.70;99.90;;;;;;7367488;19;20015;-61
2023/01/11 08:20:33;;;;;;;24.08;5.25;;;9.70;99.90;;;;;;7369375;19;20078;-61
2023/01/11 08:23:07;;;;;;;17.00;4.28;;;9.60;99.90;;;;;;7364400;19;20018;-61
2023/01/11 08:25:34;;;;;;;23.98;5.53;;;9.60;99.90;;;;;;7371728;19;20022;-61
2023/01/11 08:28:04;;;;;;;21.30;4.70;;;9.50;99.90;;;;;;7370512;19;20021;-61
2023/01/11 08:30:31;;;;;;;15.52;4.00;;;9.50;99.90;;;;;;7368277;19;20533;-60
2023/01/11 08:33:00;;;;;;;20.38;3.92;;;9.50;99.90;;;;;;7375534;19;20121;-58
2023/01/11 08:35:27;;;;;;;17.35;3.28;;;9.40;99.90;;;;;;7388713;19;20360;-57
2023/01/11 08:37:53;;;;;;;18.33;3.80;;;9.40;99.90;;;;;;7387206;19;20019;-57
2023/01/11 08:40:19;;;;;;;24.10;4.05;;;9.40;99.90;;;;;;7389030;19;20010;-57
2023/01/11 08:42:47;;;;;;;21.10;4.35;;;9.40;99.90;;;;;;7388815;19;20027;-56
2023/01/11 08:45:13;;;;;;;18.67;3.83;;;9.30;99.90;;;;;;7390787;19;20472;-57
2023/01/11 08:47:40;;;;;;;25.67;3.95;;;9.30;99.90;;;;;;7387736;19;20010;-57
2023/01/11 08:50:08;;;;;;;23.05;3.55;;;9.30;99.90;;;;;;7396395;19;20036;-57
2023/01/11 08:52:38;;;;;;;15.23;2.92;;;9.30;99.90;;;;;;7395621;19;20469;-57
2023/01/11 08:55:06;;;;;;;16.80;3.45;;;9.30;99.90;;;;;;7387023;19;20579;-61
2023/01/11 08:57:34;;;;;;;14.02;3.00;;;9.30;99.90;;;;;;7375131;19;20022;-61
2023/01/11 09:00:00;;;;;;;14.95;3.25;;;9.30;99.90;;;;;;7390925;19;20500;-57
2023/01/11 09:02:26;;;;;;;17.00;3.55;;;9.30;99.90;;;;;;7387198;19;20031;-61
2023/01/11 09:04:52;;;;;;;22.23;3.25;;;9.20;99.90;;;;;;7368212;19;20022;-61
2023/01/11 09:07:18;;;;;;;16.48;3.80;;;9.20;99.90;;;;;;7385697;19;20019;-57
2023/01/11 09:09:45;;;;;;;20.63;4.05;;;9.20;99.90;;;;;;7393549;19;20033;-58
2023/01/11 09:12:11;;;;;;;12.55;3.13;;;9.20;99.90;;;;;;7393787;19;20010;-56
2023/01/11 09:14:38;;;;;;;24.95;4.40;;;9.20;99.90;;;;;;7374187;19;20041;-62
2023/01/11 09:17:04;;;;;;;17.70;3.83;;;9.20;99.90;;;;;;7371940;19;20380;-61
2023/01/11 09:19:32;;;;;;;25.30;4.05;;;9.20;99.90;;;;;;7389124;19;20358;-57
2023/01/11 09:22:01;;;;;;;22.75;4.50;;;9.20;99.90;;;;;;7394910;19;20011;-58
2023/01/11 09:24:29;;;;;;;16.38;4.22;;;9.20;99.90;;;;;;7392787;19;20453;-57
2023/01/11 09:26:59;;;;;;;30.40;5.63;;;9.20;99.90;;;;;;7382290;19;20385;-61
2023/01/11 09:29:26;;;;;;;23.60;5.20;;;9.20;99.90;;;;;;7371176;19;20879;-62
2023/01/11 09:31:53;;;;;;;26.80;5.28;;;9.20;99.90;;;;;;7373488;19;20302;-61
2023/01/11 09:34:19;;;;;;;21.67;5.07;;;9.20;99.90;;;;;;7394025;19;20457;-57
2023/01/11 09:36:47;;;;;;;24.30;4.55;;;9.20;99.90;;;;;;7394617;19;20022;-56
2023/01/11 09:39:17;;;;;;;23.83;4.40;;;9.20;99.90;;;;;;7384689;19;20014;-61
2023/01/11 09:42:14;;;;;;;16.52;3.70;;;9.20;99.90;;;;;;7383792;19;20469;-61
2023/01/11 09:44:49;;;;;;;26.75;5.40;;;9.20;99.90;;;;;;7388634;19;20014;-57
2023/01/11 09:47:27;;;;;;;17.77;3.38;;;9.10;99.90;;;;;;7395445;19;20018;-57
2023/01/11 09:49:59;;;;;;;17.23;3.58;;;9.20;99.90;;;;;;7394053;19;20033;-56
2023/01/11 09:52:37;;;;;;;16.45;3.97;;;9.30;99.90;;;;;;7391886;19;20417;-60
2023/01/11 09:55:04;;;;;;;19.25;3.92;;;9.40;99.90;;;;;;7393272;19;20047;-57
2023/01/11 09:57:50;;;;;;;18.08;4.18;;;9.50;99.90;;;;;;7394901;19;20676;-57
2023/01/11 10:00:52;;;;;;;16.58;3.88;;;9.60;99.90;;;;;;7391814;19;20086;-57
2023/01/11 10:03:24;;;;;;;18.13;4.15;;;9.60;99.90;;;;;;7390695;19;20019;-58
2023/01/11 10:06:00;;;;;;;18.58;4.60;;;9.70;99.90;;;;;;7392281;19;20010;-57
2023/01/11 10:08:49;;;;;;;15.77;4.15;;;9.80;99.90;;;;;;7394047;19;20011;-57
2023/01/11 10:11:41;;;;;;;22.15;4.53;;;10.00;99.90;;;;;;7392977;19;20354;-57
2023/01/11 10:14:20;;;;;;;16.10;4.00;;;10.10;99.90;;;;;;7389700;19;20163;-57
2023/01/11 10:17:19;;;;;;;15.55;3.72;;;10.20;99.90;;;;;;7390819;19;20070;-57
2023/01/11 10:19:53;;;;;;;20.67;4.78;;;10.10;99.90;;;;;;7369855;19;20025;-61
2023/01/11 10:22:35;;;;;;;22.50;4.22;;;10.20;99.90;;;;;;7371611;19;20350;-61
2023/01/11 10:25:23;;;;;;;21.70;4.32;;;10.20;99.90;;;;;;7370075;19;20116;-61
2023/01/11 10:28:06;;;;;;;20.00;4.20;;;10.30;99.90;;;;;;7380188;19;20078;-61
2023/01/11 10:30:56;;;;;;;18.50;4.07;;;10.40;99.90;;;;;;7381811;19;21479;-57
2023/01/11 10:40:33;;;;;;;18.63;4.72;;;10.30;99.90;;;;;;7391168;19;20021;-63
2023/01/11 10:43:08;;;;;;;16.10;4.53;;;10.20;99.90;;;;;;7387688;19;20014;-61
2023/01/11 10:45:50;;;;;;;17.83;4.32;;;10.20;99.90;;;;;;7366348;19;20827;-61
2023/01/11 10:48:38;;;;;;;16.73;3.92;;;10.20;99.90;;;;;;7384079;19;20572;-61
2023/01/11 10:51:26;;;;;;;17.05;3.55;;;10.10;99.90;;;;;;7369430;19;20490;-60
2023/01/11 10:54:15;;;;;;;25.38;4.43;;;10.20;99.90;;;;;;7367285;19;20541;-61
2023/01/11 10:56:58;;;;;;;21.60;3.95;;;10.20;99.90;;;;;;7370846;19;20045;-61
2023/01/11 11:00:06;;;;;;;15.73;4.28;;;10.20;99.90;;;;;;7371299;19;20477;-60
2023/01/11 11:03:09;;;;;;;19.83;4.70;;;10.50;99.90;;;;;;7370594;19;20541;-61
2023/01/11 11:05:59;;;;;;;18.05;3.33;;;10.70;99.90;;;;;;7371636;19;20077;-61
2023/01/11 11:08:37;;;;;;;14.35;3.35;;;11.30;99.90;;;;;;7372140;19;20432;-61
2023/01/11 11:11:21;;;;;;;16.60;3.60;;;11.40;99.90;;;;;;7370929;19;20014;-60
2023/01/11 11:13:56;;;;;;;20.65;4.47;;;11.80;99.90;;;;;;7364405;19;20015;-61
2023/01/11 11:16:22;;;;;;;17.38;4.57;;;11.80;99.90;;;;;;7370975;19;20360;-61
2023/01/11 11:18:57;;;;;;;15.90;3.25;;;11.70;99.90;;;;;;7368100;19;20031;-61
2023/01/11 11:21:27;;;;;;;18.05;3.83;;;11.60;99.90;;;;;;7368319;19;20018;-61
2023/01/11 11:23:59;;;;;;;28.30;5.07;;;11.30;99.90;;;;;;7363077;19;20041;-60
2023/01/11 11:26:37;;;;;;;17.58;3.63;;;11.30;99.90;;;;;;7368244;19;20014;-61
2023/01/11 11:29:09;;;;;;;16.20;3.72;;;11.10;99.90;;;;;;7364864;19;20019;-60
2023/01/11 11:31:42;;;;;;;14.57;3.20;;;11.40;99.90;;;;;;7367540;19;20043;-61
2023/01/11 11:34:16;;;;;;;13.50;3.05;;;11.40;99.90;;;;;;7364950;19;20921;-60
2023/01/11 11:36:45;;;;;;;13.75;3.10;;;11.80;99.90;;;;;;7368866;19;20018;-61
2023/01/11 11:39:18;;;;;;;17.75;3.42;;;11.80;99.90;;;;;;7369423;19;20493;-61
2023/01/11 11:41:52;;;;;;;21.08;3.83;;;11.60;99.90;;;;;;7365993;19;20110;-61
2023/01/11 11:44:23;;;;;;;15.52;3.47;;;11.50;99.90;;;;;;7364923;19;20019;-60
2023/01/11 11:47:24;;;;;;;14.07;4.05;;;11.50;99.90;;;;;;7369634;19;20021;-61
2023/01/11 11:50:12;;;;;;;15.43;3.67;;;11.20;99.90;;;;;;7363350;19;20031;-60
2023/01/11 11:52:41;;;;;;;18.95;3.63;;;11.10;99.90;;;;;;7364341;19;20022;-60
2023/01/11 11:55:08;;;;;;;18.45;3.83;;;11.10;99.90;;;;;;7368651;19;20037;-60
2023/01/11 11:57:40;;;;;;;21.38;4.57;;;11.10;99.90;;;;;;7369350;19;20832;-61
2023/01/11 12:00:25;;;;;;;15.07;4.78;;;11.30;99.90;;;;;;7366589;19;20025;-60
2023/01/11 12:03:12;;;;;;;19.75;4.30;;;11.40;99.90;;;;;;7367891;19;20018;-60
2023/01/11 12:05:52;;;;;;;16.13;3.50;;;11.30;99.90;;;;;;7366411;19;20615;-60
2023/01/11 12:08:20;;;;;;;17.55;3.72;;;11.20;99.90;;;;;;7368513;19;20868;-61
2023/01/11 12:10:50;;;;;;;20.35;3.58;;;11.10;99.90;;;;;;7369425;19;20026;-61
2023/01/11 12:13:37;;;;;;;17.45;4.47;;;11.40;99.90;;;;;;7364389;19;20018;-64
2023/01/11 12:16:19;;;;;;;15.77;3.53;;;11.80;99.90;;;;;;7367282;19;20367;-61
2023/01/11 12:18:46;;;;;;;18.80;3.10;;;12.10;99.90;;;;;;7368259;19;20024;-60
2023/01/11 12:21:22;;;;;;;18.38;3.70;;;12.30;99.90;;;;;;7370003;19;20015;-60
2023/01/11 12:24:17;;;;;;;18.65;3.50;;;12.80;99.90;;;;;;7365780;19;20022;-60
2023/01/11 12:27:02;;;;;;;16.48;3.08;;;12.70;99.90;;;;;;7369355;19;20029;-61
2023/01/11 12:29:45;;;;;;;19.80;4.22;;;12.00;99.90;;;;;;7375992;19;20491;-60
2023/01/11 12:32:40;;;;;;;17.77;3.83;;;11.60;99.90;;;;;;7375174;19;20022;-60
2023/01/11 12:35:25;;;;;;;20.63;4.50;;;11.20;99.90;;;;;;7368965;19;20018;-60
2023/01/11 12:38:02;;;;;;;18.05;3.65;;;11.10;99.90;;;;;;7375159;19;20061;-61
2023/01/11 12:41:03;;;;;;;16.27;3.58;;;11.10;99.90;;;;;;7374456;19;20487;-60
2023/01/11 12:43:50;;;;;;;17.20;4.40;;;11.10;99.90;;;;;;7370397;19;20032;-60
2023/01/11 12:46:16;;;;;;;17.95;3.90;;;11.10;99.90;;;;;;7369947;19;20019;-60
2023/01/11 12:49:24;;;;;;;19.77;3.60;;;11.20;99.90;;;;;;7376088;19;20078;-60
2023/01/11 12:51:56;;;;;;;26.42;4.43;;;11.20;99.90;;;;;;7371931;19;20022;-60
2023/01/11 12:54:51;;;;;;;16.55;4.28;;;11.00;99.90;;;;;;7372800;19;20014;-60
2023/01/11 12:57:23;;;;;;;20.02;3.53;;;10.80;99.90;;;;;;7372832;19;20018;-60
2023/01/11 13:00:11;;;;;;;17.52;3.50;;;10.60;99.90;;;;;;7369478;19;20022;-60
2023/01/11 13:02:40;;;;;;;15.52;3.72;;;10.50;99.90;;;;;;7374762;19;20029;-63
2023/01/11 13:05:50;;;;;;;17.40;3.95;;;10.60;99.90;;;;;;7366695;19;20022;-61
2023/01/11 13:08:25;;;;;;;22.67;4.30;;;10.50;99.90;;;;;;7372796;19;20520;-61
2023/01/11 13:11:11;;;;;;;19.58;3.88;;;10.50;99.90;;;;;;7372945;19;20515;-60
2023/01/11 13:13:58;;;;;;;18.50;4.63;;;10.60;99.90;;;;;;7373396;19;20096;-60
2023/01/11 13:16:45;;;;;;;19.80;4.50;;;11.00;99.90;;;;;;7372540;19;20011;-60
2023/01/11 13:19:28;;;;;;;21.70;4.53;;;11.60;99.90;;;;;;7370364;19;20018;-60
2023/01/11 13:21:55;;;;;;;14.23;3.97;;;12.20;99.90;;;;;;7368928;19;20497;-61
2023/01/11 13:24:28;;;;;;;20.45;3.92;;;12.10;99.90;;;;;;7368800;19;20476;-60
2023/01/11 13:27:03;;;;;;;20.58;5.22;;;11.80;99.90;;;;;;7368915;19;20019;-60
2023/01/11 13:29:44;;;;;;;19.27;4.25;;;11.70;99.90;;;;;;7371140;19;20476;-60
2023/01/11 13:32:23;;;;;;;19.48;4.13;;;11.40;99.90;;;;;;7371798;19;20015;-60
2023/01/11 13:34:53;;;;;;;17.35;3.75;;;11.30;99.90;;;;;;7370003;19;20081;-60
2023/01/11 13:38:04;;;;;;;18.77;4.32;;;11.20;99.90;;;;;;7381792;19;20021;-56
2023/01/11 13:40:44;;;;;;;20.20;4.32;;;11.00;99.90;;;;;;7379271;19;20018;-64